createdAt,value
2022-10-20T00:01:12.676Z,23.00
2022-10-20T00:03:40.962Z,23.00
2022-10-20T00:06:11.834Z,23.00
2022-10-20T00:08:40.250Z,23.00
2022-10-20T00:11:11.111Z,23.00
2022-10-20T00:13:40.316Z,23.00
2022-10-20T00:16:09.382Z,23.00
2022-10-20T00:18:37.966Z,23.00
2022-10-20T00:21:08.094Z,23.00
2022-10-20T00:23:37.086Z,23.00
2022-10-20T00:26:06.518Z,23.00
2022-10-20T00:28:36.120Z,23.00
2022-10-20T00:31:04.566Z,23.00
2022-10-20T00:33:33.287Z,22.90
2022-10-20T00:36:01.813Z,22.90
2022-10-20T00:38:30.045Z,23.00
2022-10-20T00:41:00.067Z,22.90
2022-10-20T00:43:44.439Z,22.90
2022-10-20T00:46:13.729Z,22.90
2022-10-20T00:48:43.755Z,22.90
2022-10-20T00:51:15.367Z,22.90
2022-10-20T00:53:44.938Z,22.90
2022-10-20T00:56:13.519Z,22.90
2022-10-20T00:58:43.974Z,22.90
2022-10-20T01:01:13.851Z,22.90
2022-10-20T01:03:45.878Z,22.90
2022-10-20T01:06:18.909Z,22.90
2022-10-20T01:08:47.304Z,22.90
2022-10-20T01:11:20.262Z,22.90
2022-10-20T01:14:11.547Z,22.90
2022-10-20T01:16:48.918Z,22.90
2022-10-20T01:19:53.520Z,22.90
2022-10-20T01:22:40.899Z,22.90
2022-10-20T01:25:23.176Z,22.90
2022-10-20T01:27:57.370Z,22.90
2022-10-20T01:30:26.192Z,22.90
2022-10-20T01:33:03.778Z,22.90
2022-10-20T01:35:41.172Z,22.90
2022-10-20T01:38:17.650Z,22.80
2022-10-20T01:40:51.099Z,22.80
2022-10-20T01:43:22.850Z,22.90
2022-10-20T01:45:53.099Z,22.80
2022-10-20T01:48:23.523Z,22.80
2022-10-20T01:50:52.179Z,22.80
2022-10-20T01:53:21.652Z,22.80
2022-10-20T01:55:52.678Z,22.90
2022-10-20T01:58:52.352Z,22.90
2022-10-20T02:01:32.448Z,22.80
2022-10-20T02:04:03.323Z,22.80
2022-10-20T02:06:40.475Z,22.90
2022-10-20T02:09:12.950Z,22.80
2022-10-20T02:11:46.392Z,22.80
2022-10-20T02:14:19.226Z,22.80
2022-10-20T02:16:50.565Z,22.80
2022-10-20T02:19:21.893Z,22.80
2022-10-20T02:21:51.083Z,22.80
2022-10-20T02:24:21.007Z,22.90
2022-10-20T02:26:49.579Z,22.80
2022-10-20T02:29:22.471Z,22.80
2022-10-20T02:31:50.741Z,22.80
2022-10-20T02:34:19.434Z,22.80
2022-10-20T02:36:47.703Z,22.80
2022-10-20T02:39:15.879Z,22.80
2022-10-20T02:41:44.059Z,22.80
2022-10-20T02:44:12.242Z,22.80
2022-10-20T02:46:41.822Z,22.80
2022-10-20T02:49:10.002Z,22.80
2022-10-20T02:51:38.211Z,22.80
2022-10-20T02:54:06.483Z,22.80
2022-10-20T02:56:34.691Z,22.80
2022-10-20T02:59:02.865Z,22.80
2022-10-20T03:01:31.064Z,22.80
2022-10-20T03:04:00.750Z,22.80
2022-10-20T03:06:28.942Z,22.80
2022-10-20T03:08:57.242Z,22.80
2022-10-20T03:11:25.460Z,22.80
2022-10-20T03:13:53.731Z,22.80
2022-10-20T03:16:22.144Z,22.80
2022-10-20T03:18:50.417Z,22.80
2022-10-20T03:21:19.978Z,22.80
2022-10-20T03:23:49.499Z,22.70
2022-10-20T03:26:17.763Z,22.80
2022-10-20T03:28:45.928Z,22.80
2022-10-20T03:31:14.738Z,22.80
2022-10-20T03:33:42.919Z,22.80
2022-10-20T03:36:11.492Z,22.80
2022-10-20T03:38:42.063Z,22.80
2022-10-20T03:41:10.594Z,22.80
2022-10-20T03:43:39.969Z,22.70
2022-10-20T03:46:09.768Z,22.70
2022-10-20T03:48:40.157Z,22.80
2022-10-20T03:51:10.128Z,22.70
2022-10-20T03:53:38.315Z,22.70
2022-10-20T03:56:09.259Z,22.70
2022-10-20T03:58:37.634Z,22.70
2022-10-20T04:01:06.438Z,22.70
2022-10-20T04:03:34.603Z,22.70
2022-10-20T04:06:02.740Z,22.70
2022-10-20T04:08:30.949Z,22.70
2022-10-20T04:10:59.498Z,22.70
2022-10-20T04:13:29.005Z,22.70
2022-10-20T04:15:57.185Z,22.70
2022-10-20T04:18:25.512Z,22.70
2022-10-20T04:20:53.715Z,22.70
2022-10-20T04:23:22.453Z,22.70
2022-10-20T04:25:50.713Z,22.70
2022-10-20T04:28:21.258Z,22.80
2022-10-20T04:30:50.789Z,22.80
2022-10-20T04:33:19.032Z,22.70
2022-10-20T04:35:47.247Z,22.70
2022-10-20T04:38:15.415Z,22.70
2022-10-20T04:40:43.546Z,22.80
2022-10-20T04:43:11.686Z,22.70
2022-10-20T04:45:39.863Z,22.70
2022-10-20T04:48:09.771Z,22.70
2022-10-20T04:50:37.992Z,22.70
2022-10-20T04:53:09.071Z,22.70
2022-10-20T04:55:37.471Z,22.80
2022-10-20T04:58:05.664Z,22.80
2022-10-20T05:00:33.984Z,22.80
2022-10-20T05:03:02.292Z,22.70
2022-10-20T05:05:31.928Z,22.80
2022-10-20T05:08:00.173Z,22.70
2022-10-20T05:10:28.586Z,22.80
2022-10-20T05:12:57.660Z,22.80
2022-10-20T05:15:25.778Z,22.80
2022-10-20T05:17:53.914Z,22.80
2022-10-20T05:20:22.078Z,22.70
2022-10-20T05:22:51.535Z,22.80
2022-10-20T05:28:08.013Z,22.70
2022-10-20T05:30:36.356Z,22.70
2022-10-20T05:33:05.043Z,22.80
2022-10-20T05:35:33.245Z,22.70
2022-10-20T05:38:02.726Z,22.80
2022-10-20T05:40:30.940Z,22.80
2022-10-20T05:42:59.091Z,22.70
2022-10-20T05:45:27.266Z,22.80
2022-10-20T05:47:55.407Z,22.70
2022-10-20T05:50:23.688Z,22.70
2022-10-20T05:52:51.858Z,22.80
2022-10-20T05:55:21.410Z,22.80
2022-10-20T05:57:50.706Z,22.70
2022-10-20T06:00:29.646Z,22.70
2022-10-20T06:02:58.306Z,22.70
2022-10-20T06:05:26.476Z,22.80
2022-10-20T06:07:55.475Z,22.70
2022-10-20T06:10:25.448Z,22.70
2022-10-20T06:12:53.665Z,22.70
2022-10-20T06:15:21.821Z,22.80
2022-10-20T06:17:50.027Z,22.80
2022-10-20T06:20:18.395Z,22.80
2022-10-20T06:22:46.588Z,22.80
2022-10-20T06:25:15.184Z,22.70
2022-10-20T06:27:44.739Z,22.80
2022-10-20T06:30:13.217Z,22.80
2022-10-20T06:32:41.343Z,22.70
2022-10-20T06:35:09.809Z,22.80
2022-10-20T06:37:38.011Z,22.80
2022-10-20T06:40:07.171Z,22.70
2022-10-20T06:42:35.644Z,22.80
2022-10-20T06:45:06.306Z,22.70
2022-10-20T06:47:34.898Z,22.80
2022-10-20T06:50:03.463Z,22.70
2022-10-20T06:52:33.893Z,22.70
2022-10-20T06:55:02.275Z,22.80
2022-10-20T06:57:32.177Z,22.70
2022-10-20T07:00:00.417Z,22.80
2022-10-20T07:02:29.954Z,22.70
2022-10-20T07:04:58.096Z,22.80
2022-10-20T07:07:26.335Z,22.80
2022-10-20T07:09:54.515Z,22.80
2022-10-20T07:12:22.714Z,22.70
2022-10-20T07:14:50.971Z,22.80
2022-10-20T07:17:19.188Z,22.70
2022-10-20T07:19:48.747Z,22.70
2022-10-20T07:22:16.933Z,22.80
2022-10-20T07:24:45.110Z,22.70
2022-10-20T07:27:13.311Z,22.80
2022-10-20T07:29:41.468Z,22.70
2022-10-20T07:32:09.710Z,22.80
2022-10-20T07:34:37.880Z,22.80
2022-10-20T07:37:07.479Z,22.70
2022-10-20T07:39:35.714Z,22.80
2022-10-20T07:42:03.967Z,22.70
2022-10-20T07:44:32.178Z,22.70
2022-10-20T07:47:00.359Z,22.80
2022-10-20T07:49:44.855Z,22.80
2022-10-20T07:52:16.407Z,22.80
2022-10-20T07:54:44.662Z,22.80
2022-10-20T07:57:13.007Z,22.80
2022-10-20T07:59:41.338Z,22.80
2022-10-20T08:02:11.622Z,22.80
2022-10-20T08:04:41.742Z,22.80
2022-10-20T08:07:09.965Z,22.80
2022-10-20T08:09:39.937Z,22.80
2022-10-20T08:12:08.158Z,22.80
2022-10-20T08:14:37.837Z,22.80
2022-10-20T08:17:12.142Z,22.80
2022-10-20T08:22:25.406Z,22.80
2022-10-20T08:24:55.114Z,22.80
2022-10-20T08:27:23.421Z,22.80
2022-10-20T08:30:00.376Z,22.80
2022-10-20T08:32:34.857Z,22.80
2022-10-20T08:35:03.880Z,22.80
2022-10-20T08:37:32.598Z,22.80
2022-10-20T08:40:02.363Z,22.90
2022-10-20T08:42:30.711Z,22.80
2022-10-20T08:45:01.366Z,22.80
2022-10-20T08:47:33.940Z,22.80
2022-10-20T08:50:03.500Z,22.80
2022-10-20T08:52:31.768Z,22.80
2022-10-20T08:55:04.476Z,22.80
2022-10-20T08:57:36.297Z,22.80
2022-10-20T09:00:15.787Z,22.80
2022-10-20T09:02:44.449Z,22.80
2022-10-20T09:05:16.670Z,22.80
2022-10-20T09:07:49.781Z,22.80
2022-10-20T09:10:30.823Z,22.80
2022-10-20T09:13:00.070Z,22.80
2022-10-20T09:15:28.828Z,22.80
2022-10-20T09:18:01.173Z,22.80
2022-10-20T09:20:32.859Z,22.80
2022-10-20T09:23:04.200Z,22.80
2022-10-20T09:25:35.574Z,22.80
2022-10-20T09:28:03.762Z,22.80
2022-10-20T09:30:35.387Z,22.80
2022-10-20T09:33:28.214Z,22.80
2022-10-20T09:36:02.367Z,22.80
2022-10-20T09:38:32.803Z,22.80
2022-10-20T09:41:11.106Z,22.80
2022-10-20T09:43:42.200Z,22.80
2022-10-20T09:46:12.872Z,22.80
2022-10-20T09:48:47.103Z,22.80
2022-10-20T09:51:17.537Z,22.80
2022-10-20T09:53:53.747Z,22.80
2022-10-20T09:56:32.756Z,22.80
2022-10-20T09:59:03.126Z,22.80
2022-10-20T10:01:31.691Z,22.80
2022-10-20T10:04:02.007Z,22.80
2022-10-20T10:06:34.137Z,22.80
2022-10-20T10:09:03.108Z,22.80
2022-10-20T10:11:36.781Z,22.80
2022-10-20T10:14:05.986Z,22.80
2022-10-20T10:16:42.544Z,22.90
2022-10-20T10:19:18.514Z,22.80
2022-10-20T10:21:49.161Z,22.80
2022-10-20T10:24:47.625Z,22.90
2022-10-20T10:27:26.356Z,22.80
2022-10-20T10:29:55.185Z,22.80
2022-10-20T10:32:26.703Z,22.80
2022-10-20T10:35:08.795Z,22.80
2022-10-20T10:37:41.406Z,22.80
2022-10-20T10:40:17.523Z,22.80
2022-10-20T10:43:10.207Z,22.80
2022-10-20T10:45:46.574Z,22.80
2022-10-20T10:48:40.703Z,22.90
2022-10-20T10:51:11.990Z,22.90
2022-10-20T10:53:56.590Z,22.90
2022-10-20T10:56:34.299Z,22.90
2022-10-20T10:59:11.123Z,22.90
2022-10-20T11:01:58.462Z,22.90
2022-10-20T11:04:54.348Z,22.90
2022-10-20T11:07:30.768Z,22.90
2022-10-20T11:10:06.569Z,22.90
2022-10-20T11:13:00.530Z,22.90
2022-10-20T11:15:47.642Z,23.00
2022-10-20T11:18:27.361Z,22.90
2022-10-20T11:21:05.434Z,22.90
2022-10-20T11:23:56.035Z,22.90
2022-10-20T11:26:29.190Z,23.00
2022-10-20T11:28:58.779Z,23.00
2022-10-20T11:31:33.565Z,23.00
2022-10-20T11:34:06.336Z,23.00
2022-10-20T11:36:39.174Z,23.00
2022-10-20T11:39:15.823Z,23.00
2022-10-20T11:41:49.176Z,23.00
2022-10-20T11:44:22.523Z,23.00
2022-10-20T11:46:56.796Z,23.00
2022-10-20T11:49:25.487Z,23.00
2022-10-20T11:52:16.578Z,23.00
2022-10-20T11:55:21.354Z,23.00
2022-10-20T11:58:07.338Z,23.00
2022-10-20T12:00:54.065Z,23.00
2022-10-20T12:04:10.347Z,23.00
2022-10-20T12:07:20.343Z,23.00
2022-10-20T12:10:04.154Z,23.00
2022-10-20T12:12:38.479Z,23.00
2022-10-20T12:15:22.272Z,23.00
2022-10-20T12:17:52.237Z,23.10
2022-10-20T12:20:59.645Z,23.00
2022-10-20T12:24:03.037Z,23.10
2022-10-20T12:27:05.333Z,23.00
2022-10-20T12:30:02.747Z,23.10
2022-10-20T12:32:57.459Z,23.10
2022-10-20T12:35:47.658Z,23.00
2022-10-20T12:38:19.508Z,23.10
2022-10-20T12:40:55.360Z,23.10
2022-10-20T12:43:37.441Z,23.00
2022-10-20T12:46:11.029Z,23.10
2022-10-20T12:48:46.020Z,23.10
2022-10-20T12:51:26.142Z,23.10
2022-10-20T12:54:01.728Z,23.10
2022-10-20T12:56:37.347Z,23.10
2022-10-20T12:59:25.437Z,23.10
2022-10-20T13:02:36.430Z,23.10
2022-10-20T13:05:42.717Z,23.10
2022-10-20T13:08:32.823Z,23.10
2022-10-20T13:11:49.976Z,23.10
2022-10-20T13:14:32.655Z,23.10
2022-10-20T13:17:07.031Z,23.10
2022-10-20T13:19:43.922Z,23.10
2022-10-20T13:22:33.450Z,23.10
2022-10-20T13:25:04.041Z,23.10
2022-10-20T13:27:32.366Z,23.10
2022-10-20T13:30:02.031Z,23.10
2022-10-20T13:32:43.424Z,23.10
2022-10-20T13:35:28.691Z,23.10
2022-10-20T13:38:01.238Z,23.10
2022-10-20T13:40:40.220Z,23.20
2022-10-20T13:43:30.335Z,23.10
2022-10-20T13:46:22.944Z,23.10
2022-10-20T13:49:14.902Z,23.10
2022-10-20T13:51:48.203Z,23.10
2022-10-20T13:54:24.011Z,23.10
2022-10-20T13:56:53.140Z,23.20
2022-10-20T14:01:59.687Z,23.10
2022-10-20T14:07:37.703Z,23.10
2022-10-20T14:10:06.971Z,23.10
2022-10-20T14:12:35.655Z,23.10
2022-10-20T14:15:07.332Z,23.10
2022-10-20T14:17:40.706Z,23.20
2022-10-20T14:20:18.520Z,23.20
2022-10-20T14:22:47.245Z,23.20
2022-10-20T14:25:16.129Z,23.20
2022-10-20T14:27:45.126Z,23.20
2022-10-20T14:30:17.422Z,23.20
2022-10-20T14:32:48.946Z,23.20
2022-10-20T14:35:26.067Z,23.20
2022-10-20T14:37:58.915Z,23.20
2022-10-20T14:40:29.714Z,23.20
2022-10-20T14:43:04.234Z,23.20
2022-10-20T14:48:09.753Z,23.20
2022-10-20T14:50:40.992Z,23.20
2022-10-20T14:53:31.391Z,23.20
2022-10-20T14:56:02.237Z,23.20
2022-10-20T14:58:37.272Z,23.20
2022-10-20T15:01:16.630Z,23.20
2022-10-20T15:03:46.378Z,23.20
2022-10-20T15:06:18.204Z,23.20
2022-10-20T15:08:58.253Z,23.20
2022-10-20T15:11:31.599Z,23.20
2022-10-20T15:14:01.250Z,23.20
2022-10-20T15:16:42.530Z,23.20
2022-10-20T15:19:28.110Z,23.30
2022-10-20T15:22:01.169Z,23.30
2022-10-20T15:24:29.954Z,23.30
2022-10-20T15:26:58.752Z,23.30
2022-10-20T15:29:27.749Z,23.30
2022-10-20T15:31:56.252Z,23.30
2022-10-20T15:34:26.216Z,23.30
2022-10-20T15:36:54.522Z,23.30
2022-10-20T15:39:22.641Z,23.30
2022-10-20T15:41:53.735Z,23.30
2022-10-20T15:44:23.285Z,23.30
2022-10-20T15:46:53.431Z,23.30
2022-10-20T15:49:22.468Z,23.30
2022-10-20T15:51:52.239Z,23.30
2022-10-20T15:54:23.494Z,23.30
2022-10-20T15:56:51.932Z,23.30
2022-10-20T15:59:20.175Z,23.30
2022-10-20T16:01:48.392Z,23.30
2022-10-20T16:04:23.165Z,23.30
2022-10-20T16:06:57.675Z,23.30
2022-10-20T16:09:28.627Z,23.30
2022-10-20T16:11:56.897Z,23.30
2022-10-20T16:14:25.264Z,23.30
2022-10-20T16:16:53.479Z,23.40
2022-10-20T16:19:21.668Z,23.30
2022-10-20T16:21:49.856Z,23.30
2022-10-20T16:24:19.451Z,23.30
2022-10-20T16:26:47.610Z,23.30
2022-10-20T16:29:16.137Z,23.30
2022-10-20T16:31:44.342Z,23.30
2022-10-20T16:34:12.458Z,23.30
2022-10-20T16:36:40.770Z,23.30
2022-10-20T16:39:10.921Z,23.40
2022-10-20T16:41:40.449Z,23.40
2022-10-20T16:44:08.605Z,23.40
2022-10-20T16:46:36.809Z,23.30
2022-10-20T16:49:05.642Z,23.30
2022-10-20T16:51:34.016Z,23.30
2022-10-20T16:54:03.539Z,23.40
2022-10-20T16:56:32.020Z,23.30
2022-10-20T16:59:01.878Z,23.30
2022-10-20T17:01:30.267Z,23.30
2022-10-20T17:03:58.840Z,23.30
2022-10-20T17:06:27.594Z,23.30
2022-10-20T17:08:55.923Z,23.30
2022-10-20T17:11:26.823Z,23.30
2022-10-20T17:13:55.652Z,23.30
2022-10-20T17:16:28.641Z,23.30
2022-10-20T17:18:58.559Z,23.30
2022-10-20T17:21:27.763Z,23.30
2022-10-20T17:23:56.460Z,23.30
2022-10-20T17:26:27.246Z,23.30
2022-10-20T17:28:56.459Z,23.30
2022-10-20T17:31:26.077Z,23.30
2022-10-20T17:33:56.368Z,23.30
2022-10-20T17:36:26.885Z,23.30
2022-10-20T17:38:57.274Z,23.30
2022-10-20T17:41:26.105Z,23.30
2022-10-20T17:43:54.531Z,23.30
2022-10-20T17:46:22.865Z,23.30
2022-10-20T17:48:52.444Z,23.30
2022-10-20T17:51:22.463Z,23.30
2022-10-20T17:53:52.449Z,23.30
2022-10-20T17:56:22.175Z,23.30
2022-10-20T17:58:52.137Z,23.30
2022-10-20T18:01:22.159Z,23.30
2022-10-20T18:03:56.447Z,23.30
2022-10-20T18:06:29.974Z,23.30
2022-10-20T18:09:03.489Z,23.30
2022-10-20T18:11:33.906Z,23.30
2022-10-20T18:14:02.303Z,23.30
2022-10-20T18:16:32.816Z,23.30
2022-10-20T18:19:02.500Z,23.30
2022-10-20T18:21:31.842Z,23.30
2022-10-20T18:24:02.271Z,23.30
2022-10-20T18:26:32.040Z,23.30
2022-10-20T18:29:01.779Z,23.30
2022-10-20T18:31:32.319Z,23.30
2022-10-20T18:34:06.972Z,23.30
2022-10-20T18:36:39.156Z,23.30
2022-10-20T18:39:11.298Z,23.30
2022-10-20T18:41:42.947Z,23.30
2022-10-20T18:44:14.560Z,23.30
2022-10-20T18:46:43.596Z,23.30
2022-10-20T18:49:15.470Z,23.30
2022-10-20T18:51:46.064Z,23.30
2022-10-20T18:54:14.847Z,23.30
2022-10-20T18:56:43.642Z,23.30
2022-10-20T18:59:16.434Z,23.30
2022-10-20T19:01:45.330Z,23.20
2022-10-20T19:04:15.603Z,23.20
2022-10-20T19:06:45.755Z,23.20
2022-10-20T19:09:16.902Z,23.20
2022-10-20T19:11:46.305Z,23.20
2022-10-20T19:14:15.394Z,23.20
2022-10-20T19:16:46.081Z,23.20
2022-10-20T19:19:16.177Z,23.20
2022-10-20T19:21:44.420Z,23.20
2022-10-20T19:24:16.583Z,23.30
2022-10-20T19:26:57.104Z,23.20
2022-10-20T19:29:35.352Z,23.20
2022-10-20T19:32:04.078Z,23.20
2022-10-20T19:34:36.356Z,23.30
2022-10-20T19:37:05.610Z,23.20
2022-10-20T19:39:36.914Z,23.20
2022-10-20T19:42:07.850Z,23.20
2022-10-20T19:44:36.624Z,23.20
2022-10-20T19:47:06.197Z,23.20
2022-10-20T19:49:35.972Z,23.20
2022-10-20T19:52:05.355Z,23.20
2022-10-20T19:54:33.940Z,23.20
2022-10-20T19:57:02.278Z,23.20
2022-10-20T19:59:30.475Z,23.20
2022-10-20T20:01:58.654Z,23.20
2022-10-20T20:04:26.854Z,23.20
2022-10-20T20:07:01.732Z,23.20
2022-10-20T20:09:30.555Z,23.20
2022-10-20T20:12:00.183Z,23.20
2022-10-20T20:14:28.575Z,23.20
2022-10-20T20:16:56.771Z,23.20
2022-10-20T20:19:25.010Z,23.20
2022-10-20T20:21:53.242Z,23.20
2022-10-20T20:24:22.823Z,23.20
2022-10-20T20:26:50.997Z,23.20
2022-10-20T20:29:19.135Z,23.20
2022-10-20T20:31:48.045Z,23.20
2022-10-20T20:34:16.732Z,23.20
2022-10-20T20:36:44.880Z,23.20
2022-10-20T20:39:13.217Z,23.20
2022-10-20T20:41:43.166Z,23.20
2022-10-20T20:44:11.756Z,23.20
2022-10-20T20:46:39.970Z,23.20
2022-10-20T20:49:08.184Z,23.20
2022-10-20T20:51:36.530Z,23.20
2022-10-20T20:54:05.249Z,23.20
2022-10-20T20:56:33.767Z,23.20
2022-10-20T20:59:03.579Z,23.20
2022-10-20T21:01:32.703Z,23.20
2022-10-20T21:04:02.958Z,23.20
2022-10-20T21:07:00.263Z,23.10
2022-10-20T21:09:20.409Z,23.10
2022-10-20T21:11:49.550Z,23.20
2022-10-20T21:14:19.355Z,23.10
2022-10-20T21:16:47.592Z,23.10
2022-10-20T21:19:15.946Z,23.10
2022-10-20T21:21:50.107Z,23.10
2022-10-20T21:24:18.938Z,23.10
2022-10-20T21:26:48.698Z,23.10
2022-10-20T21:29:18.445Z,23.10
2022-10-20T21:31:46.589Z,23.10
2022-10-20T21:34:14.887Z,23.10
2022-10-20T21:36:43.156Z,23.10
2022-10-20T21:39:15.812Z,23.10
2022-10-20T21:41:44.971Z,23.10
2022-10-20T21:44:15.330Z,23.10
2022-10-20T21:46:47.711Z,23.10
2022-10-20T21:49:18.128Z,23.10
2022-10-20T21:51:48.366Z,23.10
2022-10-20T21:54:18.198Z,23.10
2022-10-20T21:56:47.966Z,23.10
2022-10-20T21:59:19.268Z,23.10
2022-10-20T22:01:49.882Z,23.10
2022-10-20T22:04:20.083Z,23.10
2022-10-20T22:06:48.681Z,23.10
2022-10-20T22:09:17.749Z,23.10
2022-10-20T22:11:49.887Z,23.10
2022-10-20T22:14:18.697Z,23.10
2022-10-20T22:16:48.505Z,23.10
2022-10-20T22:19:18.980Z,23.10
2022-10-20T22:21:48.770Z,23.10
2022-10-20T22:24:18.566Z,23.10
2022-10-20T22:26:47.095Z,23.00
2022-10-20T22:29:15.423Z,23.00
2022-10-20T22:31:43.970Z,23.00
2022-10-20T22:34:14.117Z,23.00
2022-10-20T22:36:44.158Z,23.00
2022-10-20T22:41:45.672Z,23.00
2022-10-20T22:44:13.947Z,23.00
2022-10-20T22:46:42.059Z,23.00
2022-10-20T22:49:10.251Z,23.00
2022-10-20T22:51:39.742Z,23.00
2022-10-20T22:54:08.074Z,23.00
2022-10-20T22:56:36.261Z,23.00
2022-10-20T22:59:04.489Z,23.00
2022-10-20T23:01:32.725Z,23.00
2022-10-20T23:04:00.963Z,23.00
2022-10-20T23:06:29.298Z,23.00
2022-10-20T23:08:58.930Z,23.00
2022-10-20T23:11:27.311Z,23.00
2022-10-20T23:13:55.492Z,23.00
2022-10-20T23:18:58.102Z,23.00
2022-10-20T23:21:26.506Z,23.00
2022-10-20T23:23:54.762Z,23.00
2022-10-20T23:26:24.527Z,23.00
2022-10-20T23:28:52.737Z,23.00
2022-10-20T23:31:22.298Z,23.00
2022-10-20T23:33:55.129Z,23.00
2022-10-20T23:36:23.747Z,23.00
2022-10-20T23:38:51.934Z,23.00
2022-10-20T23:41:20.411Z,23.00
2022-10-20T23:43:50.043Z,23.00
2022-10-20T23:46:18.396Z,23.00
2022-10-20T23:48:46.611Z,23.00
2022-10-20T23:51:14.773Z,23.00
2022-10-20T23:53:43.435Z,23.00
2022-10-20T23:56:11.636Z,23.00
2022-10-20T23:58:39.906Z,22.90
